createdAt,value
2023-08-17T00:02:57.692Z,11.90
2023-08-17T00:05:59.760Z,11.73
2023-08-17T00:09:01.373Z,13.20
2023-08-17T00:12:03.827Z,11.27
2023-08-17T00:15:07.218Z,12.05
2023-08-17T00:18:09.242Z,11.37
2023-08-17T00:21:11.314Z,12.13
2023-08-17T00:24:13.392Z,13.63
2023-08-17T00:27:15.430Z,13.90
2023-08-17T00:30:19.075Z,13.25
2023-08-17T00:33:21.373Z,12.77
2023-08-17T00:36:23.488Z,11.10
2023-08-17T00:39:25.455Z,12.98
2023-08-17T00:42:27.825Z,13.15
2023-08-17T00:45:30.400Z,12.07
2023-08-17T00:48:33.229Z,11.37
2023-08-17T00:51:35.442Z,13.88
2023-08-17T00:54:39.326Z,12.95
2023-08-17T00:57:42.894Z,13.30
2023-08-17T01:00:45.250Z,11.73
2023-08-17T01:03:47.363Z,11.73
2023-08-17T01:06:51.696Z,12.30
2023-08-17T01:09:54.592Z,13.77
2023-08-17T01:13:06.995Z,11.82
2023-08-17T01:16:16.574Z,14.05
2023-08-17T01:19:28.098Z,13.40
2023-08-17T01:22:31.510Z,12.75
2023-08-17T01:25:40.564Z,12.30
2023-08-17T01:28:46.831Z,12.15
2023-08-17T01:31:59.399Z,14.18
2023-08-17T01:35:30.188Z,13.27
2023-08-17T01:38:34.495Z,12.80
2023-08-17T01:41:38.781Z,14.70
2023-08-17T01:44:41.001Z,14.05
2023-08-17T01:47:43.149Z,12.52
2023-08-17T01:50:45.231Z,13.97
2023-08-17T01:53:48.106Z,15.27
2023-08-17T01:56:49.768Z,14.85
2023-08-17T01:59:53.263Z,15.45
2023-08-17T02:02:55.341Z,14.23
2023-08-17T02:05:57.958Z,15.80
2023-08-17T02:09:00.603Z,14.75
2023-08-17T02:12:02.708Z,14.60
2023-08-17T02:15:05.140Z,15.30
2023-08-17T02:18:07.450Z,17.05
2023-08-17T02:21:10.801Z,15.07
2023-08-17T02:24:15.532Z,16.23
2023-08-17T02:27:18.569Z,15.90
2023-08-17T02:30:20.739Z,15.20
2023-08-17T02:33:23.384Z,16.98
2023-08-17T02:36:25.749Z,16.13
2023-08-17T02:39:29.913Z,15.18
2023-08-17T02:42:32.346Z,15.40
2023-08-17T02:45:35.786Z,14.50
2023-08-17T02:48:37.880Z,14.90
2023-08-17T02:51:39.944Z,14.90
2023-08-17T02:54:41.958Z,15.18
2023-08-17T02:57:45.916Z,14.65
2023-08-17T03:00:48.022Z,18.15
2023-08-17T03:03:50.121Z,15.70
2023-08-17T03:06:52.180Z,14.87
2023-08-17T03:09:54.156Z,15.27
2023-08-17T03:12:56.223Z,14.90
2023-08-17T03:15:58.291Z,16.98
2023-08-17T03:19:00.890Z,17.00
2023-08-17T03:22:03.390Z,15.63
2023-08-17T03:25:11.584Z,17.73
2023-08-17T03:28:14.361Z,16.38
2023-08-17T03:31:16.502Z,17.13
2023-08-17T03:34:18.217Z,15.77
2023-08-17T03:37:20.372Z,16.07
2023-08-17T03:40:22.137Z,16.27
2023-08-17T03:43:24.353Z,15.52
2023-08-17T03:46:26.534Z,16.92
2023-08-17T03:49:29.563Z,16.50
2023-08-17T03:52:32.095Z,17.05
2023-08-17T03:55:33.810Z,16.00
2023-08-17T03:58:37.310Z,16.42
2023-08-17T04:01:40.660Z,17.17
2023-08-17T04:04:44.355Z,17.37
2023-08-17T04:07:46.740Z,18.58
2023-08-17T04:10:48.885Z,19.20
2023-08-17T04:13:50.976Z,20.67
2023-08-17T04:16:57.896Z,20.75
2023-08-17T04:19:59.950Z,20.70
2023-08-17T04:23:02.905Z,18.13
2023-08-17T04:26:04.521Z,15.60
2023-08-17T04:29:07.108Z,17.02
2023-08-17T04:32:09.265Z,16.77
2023-08-17T04:35:11.987Z,17.13
2023-08-17T04:38:15.372Z,17.50
2023-08-17T04:41:19.062Z,17.35
2023-08-17T04:44:20.713Z,17.60
2023-08-17T04:47:22.850Z,15.38
2023-08-17T04:50:24.980Z,17.53
2023-08-17T04:53:28.944Z,16.30
2023-08-17T04:56:31.119Z,17.30
2023-08-17T04:59:33.253Z,16.55
2023-08-17T05:02:35.566Z,18.85
2023-08-17T05:05:38.386Z,16.97
2023-08-17T05:08:44.133Z,17.50
2023-08-17T05:11:46.933Z,16.42
2023-08-17T05:14:48.989Z,18.48
2023-08-17T05:17:51.326Z,15.50
2023-08-17T05:20:53.467Z,16.37
2023-08-17T05:23:55.551Z,15.82
2023-08-17T05:26:57.588Z,15.95
2023-08-17T05:29:59.664Z,16.27
2023-08-17T05:33:01.773Z,15.90
2023-08-17T05:36:04.643Z,16.20
2023-08-17T05:39:07.263Z,14.50
2023-08-17T05:42:11.043Z,19.00
2023-08-17T05:45:13.065Z,16.40
2023-08-17T05:48:15.132Z,15.35
2023-08-17T05:51:17.450Z,15.80
2023-08-17T05:54:20.037Z,16.75
2023-08-17T05:57:22.563Z,16.08
2023-08-17T06:00:24.597Z,17.00
2023-08-17T06:03:26.738Z,17.13
2023-08-17T06:06:29.012Z,18.20
2023-08-17T06:09:30.937Z,17.42
2023-08-17T06:12:33.065Z,17.98
2023-08-17T06:15:35.191Z,17.50
2023-08-17T06:18:37.399Z,16.95
2023-08-17T06:21:39.540Z,17.90
2023-08-17T06:24:41.728Z,19.60
2023-08-17T06:27:57.319Z,21.30
2023-08-17T06:31:01.394Z,24.83
2023-08-17T06:34:06.549Z,25.55
2023-08-17T06:37:13.240Z,24.53
2023-08-17T06:40:17.231Z,25.40
2023-08-17T06:43:20.939Z,23.77
2023-08-17T06:46:23.462Z,21.45
2023-08-17T06:49:29.838Z,24.08
2023-08-17T06:52:31.980Z,24.77
2023-08-17T06:55:34.138Z,24.33
2023-08-17T06:58:36.428Z,23.92
2023-08-17T07:01:38.504Z,23.60
2023-08-17T07:04:40.860Z,24.63
2023-08-17T07:07:43.880Z,25.43
2023-08-17T07:10:45.950Z,19.92
2023-08-17T07:13:48.241Z,23.48
2023-08-17T07:16:49.987Z,22.38
2023-08-17T07:20:07.670Z,23.70
2023-08-17T07:23:14.609Z,22.97
2023-08-17T07:26:16.774Z,21.60
2023-08-17T07:29:18.457Z,21.83
2023-08-17T07:32:20.283Z,20.63
2023-08-17T07:35:22.368Z,19.58
2023-08-17T07:38:24.736Z,20.97
2023-08-17T07:41:26.900Z,19.90
2023-08-17T07:44:30.000Z,22.50
2023-08-17T07:47:31.893Z,19.98
2023-08-17T07:50:34.219Z,19.67
2023-08-17T07:53:36.252Z,19.80
2023-08-17T07:56:38.264Z,21.75
2023-08-17T07:59:40.337Z,18.40
2023-08-17T08:02:42.017Z,18.23
2023-08-17T08:05:44.677Z,21.23
2023-08-17T08:08:47.280Z,19.77
2023-08-17T08:11:49.321Z,22.73
2023-08-17T08:14:52.263Z,18.98
2023-08-17T08:17:55.013Z,20.23
2023-08-17T08:20:57.093Z,22.27
2023-08-17T08:23:59.152Z,20.87
2023-08-17T08:27:02.559Z,19.92
2023-08-17T08:30:04.456Z,18.75
2023-08-17T08:33:07.036Z,20.15
2023-08-17T08:36:08.686Z,18.00
2023-08-17T08:39:11.881Z,18.57
2023-08-17T08:42:13.586Z,21.50
2023-08-17T08:45:16.102Z,17.90
2023-08-17T08:48:20.295Z,18.52
2023-08-17T08:51:29.837Z,17.63
2023-08-17T08:54:37.946Z,16.40
2023-08-17T08:57:42.510Z,17.70
2023-08-17T09:00:47.665Z,15.82
2023-08-17T09:03:50.569Z,15.50
2023-08-17T09:06:52.946Z,15.75
2023-08-17T09:09:55.052Z,19.30
2023-08-17T09:12:57.851Z,18.93
2023-08-17T09:19:09.874Z,19.42
2023-08-17T09:22:11.544Z,18.10
2023-08-17T09:25:23.761Z,18.80
2023-08-17T09:28:25.906Z,15.83
2023-08-17T09:31:27.703Z,15.85
2023-08-17T09:34:32.911Z,15.80
2023-08-17T09:37:35.662Z,17.90
2023-08-17T09:40:38.251Z,18.60
2023-08-17T09:43:40.405Z,18.30
2023-08-17T09:46:45.684Z,16.02
2023-08-17T09:49:56.388Z,14.75
2023-08-17T09:52:58.924Z,20.17
2023-08-17T09:56:01.634Z,15.57
2023-08-17T09:59:03.843Z,15.40
2023-08-17T10:02:21.544Z,17.30
2023-08-17T10:05:24.353Z,15.30
2023-08-17T10:08:31.426Z,15.45
2023-08-17T10:11:40.087Z,17.60
2023-08-17T10:14:50.712Z,14.27
2023-08-17T10:18:18.595Z,15.07
2023-08-17T10:21:37.371Z,17.25
2023-08-17T10:24:46.760Z,16.77
2023-08-17T10:27:50.202Z,15.30
2023-08-17T10:30:52.875Z,14.77
2023-08-17T10:33:58.005Z,14.55
2023-08-17T10:37:01.321Z,13.68
2023-08-17T10:40:04.741Z,14.50
2023-08-17T10:43:07.195Z,14.07
2023-08-17T10:46:19.179Z,11.53
2023-08-17T10:49:28.820Z,14.32
2023-08-17T10:52:39.247Z,13.50
2023-08-17T10:55:43.229Z,12.95
2023-08-17T10:58:45.623Z,13.97
2023-08-17T11:01:52.941Z,12.03
2023-08-17T11:04:54.676Z,12.73
2023-08-17T11:07:56.998Z,12.43
2023-08-17T11:11:13.819Z,75.53
2023-08-17T11:14:15.825Z,16.00
2023-08-17T11:17:17.848Z,12.03
2023-08-17T11:20:20.258Z,11.73
2023-08-17T11:23:26.124Z,12.55
2023-08-17T11:26:28.791Z,12.57
2023-08-17T11:29:33.334Z,14.20
2023-08-17T11:32:36.065Z,10.97
2023-08-17T11:35:38.296Z,11.57
2023-08-17T11:38:43.031Z,10.95
2023-08-17T11:41:45.669Z,11.65
2023-08-17T11:44:47.736Z,11.83
2023-08-17T11:47:50.693Z,12.27
2023-08-17T11:50:54.063Z,10.32
2023-08-17T11:54:00.189Z,11.13
2023-08-17T11:57:05.366Z,11.43
2023-08-17T12:00:08.776Z,10.17
2023-08-17T12:03:16.234Z,13.13
2023-08-17T12:06:18.643Z,12.02
2023-08-17T12:09:22.522Z,10.18
2023-08-17T12:12:25.036Z,10.30
2023-08-17T12:15:33.299Z,10.27
2023-08-17T12:18:35.656Z,13.27
2023-08-17T12:21:38.089Z,12.20
2023-08-17T12:24:40.287Z,8.90
2023-08-17T12:27:42.851Z,8.85
2023-08-17T12:30:45.078Z,9.30
2023-08-17T12:33:47.172Z,9.60
2023-08-17T12:36:50.214Z,8.38
2023-08-17T12:39:52.380Z,9.25
2023-08-17T12:42:54.538Z,7.80
2023-08-17T12:45:56.567Z,9.13
2023-08-17T12:48:58.626Z,10.73
2023-08-17T12:52:00.714Z,10.88
2023-08-17T12:55:02.951Z,10.68
2023-08-17T12:58:06.083Z,10.05
2023-08-17T13:01:08.268Z,10.40
2023-08-17T13:04:10.569Z,9.70
2023-08-17T13:07:12.859Z,9.20
2023-08-17T13:10:15.016Z,9.98
2023-08-17T13:13:17.136Z,9.60
2023-08-17T13:16:19.670Z,11.77
2023-08-17T13:19:21.379Z,9.90
2023-08-17T13:22:23.090Z,10.23
2023-08-17T13:25:24.807Z,9.48
2023-08-17T13:28:26.901Z,11.05
2023-08-17T13:31:28.950Z,9.20
2023-08-17T13:34:31.020Z,9.13
2023-08-17T13:37:33.080Z,10.23
2023-08-17T13:40:35.812Z,11.52
2023-08-17T13:43:37.858Z,9.55
2023-08-17T13:46:40.639Z,8.63
2023-08-17T13:49:42.934Z,10.00
2023-08-17T13:52:45.495Z,9.00
2023-08-17T13:55:47.939Z,9.10
2023-08-17T13:58:49.604Z,8.20
2023-08-17T14:01:51.773Z,8.10
2023-08-17T14:04:53.443Z,7.97
2023-08-17T14:07:56.018Z,8.75
2023-08-17T14:10:58.072Z,8.30
2023-08-17T14:14:00.324Z,8.68
2023-08-17T14:17:03.790Z,10.20
2023-08-17T14:20:06.280Z,8.67
2023-08-17T14:23:08.345Z,9.52
2023-08-17T14:26:10.430Z,9.23
2023-08-17T14:29:12.548Z,10.40
2023-08-17T14:32:14.156Z,10.13
2023-08-17T14:35:16.289Z,9.97
2023-08-17T14:38:18.769Z,9.18
2023-08-17T14:41:29.849Z,10.55
2023-08-17T14:44:34.706Z,10.27
2023-08-17T14:47:39.089Z,9.67
2023-08-17T14:50:41.067Z,9.37
2023-08-17T14:53:42.824Z,10.32
2023-08-17T14:56:45.822Z,9.68
2023-08-17T14:59:48.217Z,9.65
2023-08-17T15:02:51.064Z,10.07
2023-08-17T15:05:53.364Z,8.13
2023-08-17T15:08:56.243Z,9.93
2023-08-17T15:11:58.463Z,9.18
2023-08-17T15:15:00.552Z,9.38
2023-08-17T15:18:02.710Z,9.33
2023-08-17T15:21:04.401Z,9.73
2023-08-17T15:24:06.615Z,9.88
2023-08-17T15:27:08.759Z,10.23
2023-08-17T15:30:11.147Z,8.02
2023-08-17T15:33:13.201Z,8.60
2023-08-17T15:36:15.644Z,11.47
2023-08-17T15:39:17.274Z,11.50
2023-08-17T15:42:18.871Z,7.43
2023-08-17T15:45:21.727Z,9.18
2023-08-17T15:48:23.946Z,7.50
2023-08-17T15:51:28.653Z,8.23
2023-08-17T15:54:36.578Z,9.18
2023-08-17T15:57:39.703Z,7.95
2023-08-17T16:00:41.800Z,10.65
2023-08-17T16:03:45.863Z,9.40
2023-08-17T16:06:47.536Z,10.37
2023-08-17T16:09:49.187Z,11.20
2023-08-17T16:12:51.603Z,13.38
2023-08-17T16:15:54.475Z,15.70
2023-08-17T16:18:56.669Z,16.13
2023-08-17T16:21:58.700Z,11.50
2023-08-17T16:25:00.763Z,16.73
2023-08-17T16:28:03.007Z,13.00
2023-08-17T16:31:05.722Z,11.48
2023-08-17T16:34:07.989Z,12.80
2023-08-17T16:37:10.704Z,13.38
2023-08-17T16:40:20.905Z,11.23
2023-08-17T16:43:34.711Z,11.85
2023-08-17T16:46:36.806Z,11.73
2023-08-17T16:49:38.820Z,12.30
2023-08-17T16:52:40.852Z,9.85
2023-08-17T16:55:44.876Z,10.10
2023-08-17T16:58:48.103Z,11.93
2023-08-17T17:01:50.204Z,12.38
2023-08-17T17:04:52.281Z,10.37
2023-08-17T17:07:57.533Z,12.27
2023-08-17T17:11:00.718Z,12.52
2023-08-17T17:14:02.789Z,13.98
2023-08-17T17:17:04.847Z,12.13
2023-08-17T17:20:07.598Z,9.27
2023-08-17T17:23:09.677Z,9.75
2023-08-17T17:26:11.772Z,9.95
2023-08-17T17:29:13.497Z,11.15
2023-08-17T17:32:15.878Z,10.18
2023-08-17T17:35:17.461Z,10.10
2023-08-17T17:38:20.897Z,11.50
2023-08-17T17:41:22.504Z,10.40
2023-08-17T17:44:24.616Z,10.10
2023-08-17T17:47:27.343Z,10.23
2023-08-17T17:50:29.855Z,10.77
2023-08-17T17:53:31.996Z,11.52
2023-08-17T17:56:41.177Z,11.75
2023-08-17T17:59:46.167Z,10.82
2023-08-17T18:02:47.870Z,11.50
2023-08-17T18:05:50.056Z,10.13
2023-08-17T18:08:53.663Z,11.20
2023-08-17T18:11:56.348Z,10.57
2023-08-17T18:14:58.415Z,8.65
2023-08-17T18:18:00.846Z,8.75
2023-08-17T18:21:02.577Z,8.50
2023-08-17T18:24:04.516Z,8.80
2023-08-17T18:27:06.169Z,7.63
2023-08-17T18:30:09.446Z,9.13
2023-08-17T18:33:11.081Z,9.02
2023-08-17T18:36:13.414Z,8.60
2023-08-17T18:39:15.628Z,9.32
2023-08-17T18:42:17.631Z,8.55
2023-08-17T18:45:20.992Z,10.77
2023-08-17T18:48:23.064Z,8.95
2023-08-17T18:51:25.070Z,8.60
2023-08-17T18:54:27.152Z,9.02
2023-08-17T18:57:30.711Z,7.82
2023-08-17T19:00:34.006Z,8.80
2023-08-17T19:03:35.795Z,8.23
2023-08-17T19:06:38.038Z,10.50
2023-08-17T19:09:40.054Z,8.77
2023-08-17T19:12:42.014Z,9.95
2023-08-17T19:15:44.062Z,13.30
2023-08-17T19:18:46.050Z,11.02
2023-08-17T19:21:48.334Z,10.27
2023-08-17T19:24:49.940Z,8.80
2023-08-17T19:27:52.186Z,10.65
2023-08-17T19:30:53.793Z,8.75
2023-08-17T19:33:56.228Z,9.15
2023-08-17T19:36:59.429Z,8.73
2023-08-17T19:40:01.227Z,11.00
2023-08-17T19:43:03.915Z,11.40
2023-08-17T19:46:05.949Z,8.90
2023-08-17T19:49:07.987Z,9.07
2023-08-17T19:52:09.710Z,12.03
2023-08-17T19:55:14.084Z,10.38
2023-08-17T19:58:16.234Z,10.50
2023-08-17T20:01:18.638Z,8.73
2023-08-17T20:04:20.789Z,11.32
2023-08-17T20:07:22.844Z,13.70
2023-08-17T20:10:25.029Z,11.20
2023-08-17T20:13:27.068Z,12.05
2023-08-17T20:16:28.758Z,10.32
2023-08-17T20:19:33.612Z,10.05
2023-08-17T20:22:35.726Z,10.10
2023-08-17T20:25:37.518Z,10.32
2023-08-17T20:28:40.124Z,8.70
2023-08-17T20:31:42.592Z,11.60
2023-08-17T20:34:44.650Z,10.32
2023-08-17T20:37:46.680Z,13.67
2023-08-17T20:40:49.206Z,10.57
2023-08-17T20:43:53.837Z,10.82
2023-08-17T20:46:56.175Z,10.65
2023-08-17T20:49:59.639Z,11.35
2023-08-17T20:53:02.893Z,10.50
2023-08-17T20:56:05.100Z,10.07
2023-08-17T20:59:07.242Z,9.75
2023-08-17T21:02:10.199Z,11.48
2023-08-17T21:05:12.254Z,10.07
2023-08-17T21:08:14.528Z,9.03
2023-08-17T21:11:17.062Z,11.02
2023-08-17T21:14:19.161Z,9.75
2023-08-17T21:17:21.258Z,8.15
2023-08-17T21:20:23.395Z,9.45
2023-08-17T21:23:25.805Z,10.30
2023-08-17T21:26:27.811Z,10.07
2023-08-17T21:29:30.532Z,12.52
2023-08-17T21:32:32.567Z,9.80
2023-08-17T21:35:36.785Z,10.75
2023-08-17T21:38:38.399Z,9.77
2023-08-17T21:41:41.602Z,10.68
2023-08-17T21:44:43.702Z,9.95
2023-08-17T21:47:45.753Z,9.98
2023-08-17T21:50:47.797Z,10.80
2023-08-17T21:53:49.914Z,9.33
2023-08-17T21:56:51.549Z,10.20
2023-08-17T21:59:53.956Z,8.57
2023-08-17T22:02:56.080Z,9.85
2023-08-17T22:06:01.088Z,12.77
2023-08-17T22:09:03.241Z,9.17
2023-08-17T22:12:05.596Z,13.13
2023-08-17T22:15:08.581Z,9.90
2023-08-17T22:18:10.702Z,9.40
2023-08-17T22:21:12.786Z,11.13
2023-08-17T22:24:14.398Z,10.40
2023-08-17T22:27:17.236Z,9.38
2023-08-17T22:30:19.050Z,13.65
2023-08-17T22:33:21.072Z,10.55
2023-08-17T22:36:23.860Z,10.05
2023-08-17T22:39:25.544Z,9.73
2023-08-17T22:42:27.972Z,8.18
2023-08-17T22:45:29.992Z,9.07
2023-08-17T22:48:32.158Z,9.15
2023-08-17T22:51:34.396Z,11.85
2023-08-17T22:54:36.494Z,9.20
2023-08-17T22:57:38.775Z,9.65
2023-08-17T23:00:40.537Z,9.38
2023-08-17T23:03:43.450Z,9.25
2023-08-17T23:06:45.605Z,10.98
2023-08-17T23:09:47.997Z,10.93
2023-08-17T23:12:49.611Z,9.95
2023-08-17T23:15:51.281Z,8.10
2023-08-17T23:18:52.917Z,8.77
2023-08-17T23:21:54.730Z,9.20
2023-08-17T23:24:56.828Z,9.87
2023-08-17T23:27:58.906Z,11.90
2023-08-17T23:31:01.069Z,8.63
2023-08-17T23:34:02.897Z,9.68
2023-08-17T23:37:05.036Z,9.43
2023-08-17T23:40:08.329Z,9.27
2023-08-17T23:43:10.394Z,11.70
2023-08-17T23:46:12.634Z,9.52
2023-08-17T23:49:17.136Z,9.15
2023-08-17T23:52:18.745Z,8.63
2023-08-17T23:55:21.384Z,9.80
2023-08-17T23:58:23.125Z,10.73
